Time;durP1;ratioP1;P1;durP2;ratioP2;P2;SDS_P1;SDS_P2;PMS_P1;PMS_P2;Temp;Humidity;BMP_temperature;BMP_pressure;BME280_temperature;BME280_humidity;BME280_pressure;Samples;Min_cycle;Max_cycle;Signal;HPM_P1;HPM_P2
2022/07/08 06:55:36;;;;;;;18.08;2.78;;;18.60;99.90;;;;;;4733876;30;20052;-71
2022/07/08 06:58:20;;;;;;;11.77;2.60;;;18.60;99.90;;;;;;4734236;30;20064;-71
2022/07/08 07:00:51;;;;;;;16.27;3.05;;;18.60;99.90;;;;;;4702386;30;20055;-75
2022/07/08 07:03:43;;;;;;;11.15;2.00;;;18.70;99.90;;;;;;4701654;30;20473;-73
2022/07/08 07:09:30;;;;;;;13.35;2.70;;;18.70;99.90;;;;;;4652389;30;20058;-74
2022/07/08 07:11:56;;;;;;;16.40;2.33;;;18.60;99.90;;;;;;4681050;30;20428;-73
2022/07/08 07:14:26;;;;;;;12.95;2.22;;;18.60;99.90;;;;;;4681163;30;20054;-74
2022/07/08 07:16:52;;;;;;;16.48;3.15;;;18.70;99.90;;;;;;4653650;30;20068;-74
2022/07/08 07:19:32;;;;;;;11.48;3.00;;;18.80;99.90;;;;;;4667220;30;20136;-73
2022/07/08 07:22:09;;;;;;;19.02;3.22;;;18.80;99.90;;;;;;4680015;30;20068;-73
2022/07/08 07:24:35;;;;;;;11.32;2.50;;;18.90;99.90;;;;;;4666769;30;20114;-74
2022/07/08 07:27:05;;;;;;;12.40;2.85;;;19.00;99.90;;;;;;4652626;30;20089;-74
2022/07/08 07:29:40;;;;;;;12.18;2.10;;;19.10;99.90;;;;;;4681184;30;20065;-73
2022/07/08 07:32:09;;;;;;;13.65;2.00;;;19.10;99.90;;;;;;4667167;30;20066;-74
2022/07/08 07:34:48;;;;;;;17.55;2.92;;;19.20;99.90;;;;;;4652335;30;20436;-74
2022/07/08 07:37:14;;;;;;;12.32;2.03;;;19.30;99.90;;;;;;4685830;30;20503;-73
2022/07/08 07:39:51;;;;;;;12.55;2.63;;;19.30;99.90;;;;;;4731238;30;20045;-73
2022/07/08 07:42:24;;;;;;;11.32;2.15;;;19.40;99.90;;;;;;4702351;30;20057;-74
2022/07/08 07:44:50;;;;;;;16.98;3.00;;;19.60;99.90;;;;;;4716447;30;20187;-73
2022/07/08 07:59:10;;;;;;;15.15;1.95;;;19.70;98.80;;;;;;4683636;30;20178;-76
2022/07/08 08:02:33;;;;;;;7.57;1.83;;;19.80;98.70;;;;;;4652749;30;20054;-75
2022/07/08 08:08:58;;;;;;;;;;;;;;;;;;;;;
2022/07/08 08:14:43;;;;;;;12.23;2.30;;;20.00;98.60;;;;;;4618836;31;20094;-76
2022/07/08 08:20:48;;;;;;;7.25;1.52;;;20.10;97.30;;;;;;4618620;31;20569;-75
2022/07/08 08:31:13;;;;;;;7.43;1.60;;;20.20;97.30;;;;;;4632623;31;20066;-75
2022/07/08 08:49:01;;;;;;;8.70;2.08;;;20.80;94.50;;;;;;4684517;30;20064;-79
2022/07/08 08:51:30;;;;;;;10.40;1.63;;;20.90;94.40;;;;;;4686533;30;20441;-70
2022/07/08 09:02:01;;;;;;;6.10;1.30;;;21.00;93.60;;;;;;4716657;30;20154;-71
2022/07/08 09:04:53;;;;;;;;;;;21.10;94.00;;;;;;4718832;30;20127;-75
2022/07/08 09:07:38;;;;;;;7.07;1.27;;;21.20;94.20;;;;;;4704095;30;19945;-82
2022/07/08 09:10:06;;;;;;;18.63;1.67;;;21.30;93.70;;;;;;4704109;30;20063;-74
2022/07/08 09:12:34;;;;;;;6.95;1.58;;;21.40;94.20;;;;;;4704177;30;20543;-74
2022/07/08 09:15:01;;;;;;;7.22;1.90;;;21.50;94.00;;;;;;4703994;30;20507;-74
2022/07/08 09:17:27;;;;;;;5.10;1.42;;;21.70;94.10;;;;;;4733294;30;20061;-73
2022/07/08 09:19:53;;;;;;;10.63;2.17;;;21.80;93.80;;;;;;4704415;30;20534;-74
2022/07/08 09:22:30;;;;;;;9.77;1.38;;;21.80;94.00;;;;;;4704019;30;20100;-74
2022/07/08 09:25:13;;;;;;;7.50;1.60;;;22.10;94.10;;;;;;4704538;30;20068;-73
2022/07/08 09:27:41;;;;;;;8.05;1.70;;;22.20;93.60;;;;;;4703625;30;20045;-74
2022/07/08 09:30:17;;;;;;;10.00;1.88;;;22.40;93.30;;;;;;4701790;30;20487;-74
2022/07/08 09:33:08;;;;;;;10.27;1.58;;;22.50;93.10;;;;;;4703912;30;20063;-74
2022/07/08 09:35:48;;;;;;;10.80;2.33;;;22.50;92.90;;;;;;4691134;30;20052;-74
2022/07/08 09:38:40;;;;;;;10.80;2.60;;;22.60;93.30;;;;;;4704097;30;20060;-74
2022/07/08 09:41:19;;;;;;;7.22;1.95;;;22.70;93.30;;;;;;4703462;30;20065;-74
2022/07/08 09:43:56;;;;;;;11.88;2.40;;;22.80;93.70;;;;;;4690602;30;20061;-74
2022/07/08 09:46:36;;;;;;;7.43;1.63;;;22.70;93.80;;;;;;4704478;30;20065;-74
2022/07/08 09:49:07;;;;;;;13.73;1.90;;;22.70;93.90;;;;;;4703373;30;20052;-74
2022/07/08 09:51:46;;;;;;;13.68;2.50;;;22.80;93.90;;;;;;4703575;30;20134;-74
2022/07/08 09:54:13;;;;;;;14.05;2.05;;;22.90;93.70;;;;;;4703805;30;20045;-74
2022/07/08 09:56:39;;;;;;;10.40;2.40;;;22.90;94.20;;;;;;4718293;30;20112;-73
2022/07/08 09:59:14;;;;;;;10.52;2.70;;;23.10;94.10;;;;;;4703625;30;20064;-76
2022/07/08 10:33:51;;;;;;;9.85;2.97;;;23.30;93.20;;;;;;4721927;30;20064;-74
2022/07/08 10:36:21;;;;;;;9.85;2.40;;;23.00;93.50;;;;;;4719701;30;20052;-73
2022/07/08 10:38:50;;;;;;;9.63;2.05;;;22.80;93.80;;;;;;4704883;30;20052;-73
2022/07/08 10:41:26;;;;;;;13.93;2.25;;;22.80;94.10;;;;;;4692146;30;20510;-86
2022/07/08 10:44:34;;;;;;;12.65;3.03;;;22.80;94.20;;;;;;4708212;30;20056;-75
2022/07/08 10:47:57;;;;;;;;;;;;;;;;;;;;;
2022/07/08 10:50:42;;;;;;;14.10;3.25;;;22.70;94.60;;;;;;4680287;30;20147;-77
2022/07/08 11:18:45;;;;;;;13.52;3.28;;;23.60;94.20;;;;;;4734085;30;20043;-77
2022/07/08 11:25:15;;;;;;;18.02;3.00;;;23.70;94.20;;;;;;4717686;30;20064;-79
2022/07/08 11:27:49;;;;;;;16.05;3.38;;;23.70;94.20;;;;;;4726079;30;20446;-77
2022/07/08 11:30:17;;;;;;;14.48;3.13;;;23.90;93.80;;;;;;4691484;30;20117;-72
2022/07/08 11:32:47;;;;;;;;;;;24.20;93.90;;;;;;4705100;30;20127;-77
2022/07/08 11:35:17;;;;;;;17.45;3.08;;;24.30;93.30;;;;;;4706574;30;19923;-76
2022/07/08 11:38:04;;;;;;;;;;;;;;;;;;;;;
2022/07/08 11:40:42;;;;;;;12.07;2.75;;;24.30;93.30;;;;;;4704885;30;20119;-74
2022/07/08 11:43:35;;;;;;;10.87;2.50;;;24.40;92.90;;;;;;4707259;30;20525;-80
2022/07/08 11:46:21;;;;;;;13.73;3.20;;;24.40;93.10;;;;;;4717847;30;20538;-83
2022/07/08 11:53:32;;;;;;;11.30;2.75;;;24.80;92.30;;;;;;4732972;30;20047;-78
2022/07/08 12:00:09;;;;;;;12.35;2.80;;;24.80;92.00;;;;;;4611589;31;20083;-80
2022/07/08 12:02:36;;;;;;;16.17;3.72;;;24.70;92.00;;;;;;4631634;30;20090;-75
2022/07/08 12:05:45;;;;;;;13.95;2.90;;;24.50;92.30;;;;;;4699708;30;20060;-77
2022/07/08 12:08:22;;;;;;;9.90;2.30;;;24.60;92.60;;;;;;4691335;30;20138;-78
2022/07/08 12:22:08;;;;;;;14.18;3.10;;;24.50;92.40;;;;;;4609403;31;20066;-82
2022/07/08 12:28:31;;;;;;;12.90;2.80;;;24.60;93.60;;;;;;4611151;31;20081;-79
2022/07/08 12:31:44;;;;;;;11.85;2.85;;;24.20;92.90;;;;;;4602925;30;20068;-81
2022/07/08 12:38:18;;;;;;;15.38;2.40;;;24.20;92.90;;;;;;4687188;30;20061;-78
2022/07/08 12:41:03;;;;;;;10.93;2.60;;;24.10;93.20;;;;;;4700648;30;20057;-80
2022/07/08 12:43:32;;;;;;;11.80;2.45;;;23.90;93.60;;;;;;4694731;30;20049;-79
2022/07/08 12:46:25;;;;;;;9.70;2.70;;;23.80;93.80;;;;;;4722506;30;20112;-80
2022/07/08 12:49:26;;;;;;;12.30;2.30;;;24.00;93.80;;;;;;4707098;30;20063;-73
2022/07/08 12:52:23;;;;;;;12.35;2.83;;;24.30;93.50;;;;;;4722303;30;20051;-78
2022/07/08 12:58:47;;;;;;;13.15;2.80;;;24.70;92.80;;;;;;4722080;30;20139;-75
2022/07/08 13:01:13;;;;;;;12.25;2.88;;;24.80;92.90;;;;;;4710659;30;20051;-79
2022/07/08 13:03:53;;;;;;;10.65;2.67;;;25.10;93.10;;;;;;4706175;30;20160;-75
2022/07/08 13:06:22;;;;;;;9.77;2.08;;;25.20;92.40;;;;;;4704521;30;20107;-75
2022/07/08 13:09:23;;;;;;;10.55;2.03;;;24.90;92.40;;;;;;4703794;30;20462;-75
2022/07/08 13:12:47;;;;;;;;;;;;;;;;;;;;;
2022/07/08 13:23:12;;;;;;;17.98;2.88;;;25.10;91.70;;;;;;4590219;30;20058;-75
2022/07/08 13:44:08;;;;;;;8.48;1.90;;;24.50;92.40;;;;;;4664842;30;20559;-78
2022/07/08 13:51:19;;;;;;;10.52;2.45;;;24.80;92.40;;;;;;4607594;31;20483;-75
2022/07/08 13:54:24;;;;;;;6.00;1.58;;;24.70;92.00;;;;;;4633998;30;20091;-72
2022/07/08 13:56:52;;;;;;;13.63;2.35;;;24.70;91.90;;;;;;4694605;30;20390;-71
2022/07/08 14:00:06;;;;;;;12.88;2.03;;;24.80;92.00;;;;;;4695670;30;20064;-73
2022/07/08 14:02:35;;;;;;;10.88;2.10;;;24.70;91.90;;;;;;4699179;30;20053;-77
2022/07/08 14:08:47;;;;;;;9.48;2.10;;;25.20;92.00;;;;;;4685817;30;20056;-79
2022/07/08 14:11:22;;;;;;;;;;;25.40;91.10;;;;;;4697627;30;20491;-72
2022/07/08 14:14:01;;;;;;;15.00;2.00;;;25.50;91.00;;;;;;4708133;30;19927;-73
2022/07/08 14:16:29;;;;;;;22.63;2.13;;;25.80;91.50;;;;;;4685767;30;20115;-72
2022/07/08 14:18:55;;;;;;;21.50;2.38;;;25.80;91.30;;;;;;4708266;30;20511;-73
2022/07/08 14:21:28;;;;;;;38.58;2.40;;;25.80;90.40;;;;;;4709233;30;20052;-74
2022/07/08 14:23:54;;;;;;;43.67;3.47;;;26.00;90.40;;;;;;4709069;30;20118;-73
2022/07/08 14:26:20;;;;;;;8.02;1.50;;;26.10;90.00;;;;;;4681959;30;20447;-73
2022/07/08 14:28:51;;;;;;;19.58;1.90;;;25.90;90.20;;;;;;4712626;30;20144;-73
2022/07/08 14:31:20;;;;;;;10.40;1.83;;;26.00;90.50;;;;;;4694124;30;20106;-74
2022/07/08 14:33:48;;;;;;;16.48;2.33;;;25.90;90.00;;;;;;4713546;30;20049;-74
2022/07/08 14:36:23;;;;;;;21.08;2.13;;;25.80;90.10;;;;;;4709166;30;20049;-73
2022/07/08 14:38:56;;;;;;;30.10;2.35;;;26.00;90.80;;;;;;4706036;30;20037;-74
2022/07/08 14:41:22;;;;;;;19.17;2.38;;;26.10;89.80;;;;;;4696833;30;20041;-75
2022/07/08 14:51:43;;;;;;;9.85;1.67;;;26.40;88.70;;;;;;4727381;24;20071;-73
2022/07/08 14:54:09;;;;;;;7.38;1.60;;;26.60;87.70;;;;;;4698678;30;20391;-70
2022/07/08 14:56:35;;;;;;;8.95;1.98;;;26.30;88.50;;;;;;4713545;30;20045;-70
2022/07/08 14:59:07;;;;;;;9.77;1.55;;;26.10;88.30;;;;;;4697280;30;20055;-70
2022/07/08 15:01:32;;;;;;;5.85;1.67;;;26.40;89.30;;;;;;4696969;30;20085;-70
2022/07/08 15:04:01;;;;;;;10.77;1.95;;;26.30;89.20;;;;;;4692485;30;20129;-70
2022/07/08 15:07:30;;;;;;;;;;;;;;;;;;;;;
2022/07/08 15:27:39;;;;;;;11.32;2.40;;;25.20;90.00;;;;;;5117584;24;20064;-69
2022/07/08 15:30:06;;;;;;;10.98;1.95;;;25.00;90.30;;;;;;4714895;30;20064;-69
2022/07/08 15:32:55;;;;;;;13.05;2.15;;;25.10;90.40;;;;;;4713451;30;20053;-70
2022/07/08 15:36:03;;;;;;;;;;;;;;;;;;;;;
2022/07/08 15:39:03;;;;;;;11.85;1.73;;;24.70;90.40;;;;;;4680069;30;20516;-73
2022/07/08 15:42:13;;;;;;;7.82;1.70;;;24.60;91.10;;;;;;4714047;30;20517;-75
2022/07/08 15:44:42;;;;;;;9.30;1.98;;;25.30;89.50;;;;;;4693551;30;20118;-71
2022/07/08 15:47:08;;;;;;;23.55;2.50;;;26.00;89.30;;;;;;4714986;30;20119;-72
2022/07/08 15:49:35;;;;;;;13.98;2.13;;;26.50;87.80;;;;;;4709575;30;20053;-71
2022/07/08 15:52:01;;;;;;;20.23;2.05;;;27.10;86.20;;;;;;4710369;30;20053;-72
2022/07/08 15:54:26;;;;;;;24.58;2.17;;;27.40;84.40;;;;;;4715563;30;20495;-71
2022/07/08 15:56:52;;;;;;;13.55;2.28;;;27.70;83.30;;;;;;4706641;30;20114;-71
2022/07/08 15:59:18;;;;;;;8.98;1.65;;;28.00;81.40;;;;;;4714794;30;20051;-73
2022/07/08 16:03:06;;;;;;;;;;;;;;;;;;;;;
2022/07/08 16:06:30;;;;;;;6.82;1.52;;;28.20;78.20;;;;;;4725929;30;20404;-71
2022/07/08 16:08:56;;;;;;;7.18;1.48;;;27.70;79.40;;;;;;4713469;30;20140;-71
2022/07/08 16:11:22;;;;;;;8.77;1.77;;;27.50;82.00;;;;;;4699469;30;20048;-71
2022/07/08 16:13:51;;;;;;;8.07;1.42;;;27.70;81.90;;;;;;4712623;30;20435;-70
2022/07/08 16:16:17;;;;;;;7.65;1.58;;;28.30;80.00;;;;;;4702961;30;20135;-70
2022/07/08 16:18:43;;;;;;;11.10;1.80;;;28.20;80.30;;;;;;4718917;30;20529;-71
2022/07/08 16:21:08;;;;;;;5.75;1.33;;;28.30;79.60;;;;;;4714578;30;20053;-72
2022/07/08 16:23:52;;;;;;;8.55;1.75;;;28.60;79.30;;;;;;4733420;30;20048;-70
2022/07/08 16:26:45;;;;;;;;;;;28.80;76.70;;;;;;4712400;30;20053;-70
2022/07/08 16:29:11;;;;;;;7.57;1.42;;;28.90;76.40;;;;;;4688200;30;20471;-70
2022/07/08 16:31:39;;;;;;;6.18;1.63;;;29.00;78.10;;;;;;4691034;30;20053;-71
2022/07/08 16:34:08;;;;;;;10.27;1.60;;;29.30;77.10;;;;;;4690817;30;20064;-71
2022/07/08 16:36:36;;;;;;;12.57;1.95;;;29.20;76.20;;;;;;4701345;30;20128;-70
2022/07/08 16:39:02;;;;;;;6.20;1.40;;;29.20;76.00;;;;;;4701694;30;20061;-74
2022/07/08 16:41:27;;;;;;;9.10;1.80;;;29.00;76.20;;;;;;4692884;30;20409;-72
2022/07/08 16:44:11;;;;;;;5.60;1.27;;;28.50;76.80;;;;;;4712622;30;20057;-75
2022/07/08 16:46:37;;;;;;;6.43;1.70;;;28.20;76.50;;;;;;4685684;30;20587;-71
2022/07/08 16:49:02;;;;;;;9.68;1.73;;;28.00;78.00;;;;;;4701756;30;20132;-70
2022/07/08 16:51:28;;;;;;;10.90;1.80;;;27.70;78.60;;;;;;4691651;30;20049;-71
2022/07/08 16:53:54;;;;;;;11.48;2.90;;;27.50;79.30;;;;;;4695204;30;20053;-71
2022/07/08 16:56:20;;;;;;;9.88;2.45;;;27.70;79.50;;;;;;4693583;30;20166;-71
2022/07/08 16:58:45;;;;;;;10.07;1.92;;;27.70;79.00;;;;;;4693024;30;20077;-71
2022/07/08 17:01:11;;;;;;;9.35;1.85;;;27.40;79.20;;;;;;4686901;30;20132;-72
2022/07/08 17:03:39;;;;;;;10.20;1.83;;;27.30;79.60;;;;;;4698854;30;20566;-71
2022/07/08 17:06:05;;;;;;;5.70;1.40;;;26.90;80.40;;;;;;4711975;30;20061;-71
2022/07/08 17:08:30;;;;;;;7.68;1.58;;;26.70;80.30;;;;;;4701022;30;20511;-71
2022/07/08 17:10:56;;;;;;;10.40;2.22;;;26.10;81.80;;;;;;4701437;30;20038;-71
2022/07/08 17:13:24;;;;;;;7.75;1.65;;;25.50;84.10;;;;;;4711474;30;20057;-73
2022/07/08 17:15:52;;;;;;;10.63;2.00;;;25.00;85.60;;;;;;4696941;30;20084;-72
2022/07/08 17:18:21;;;;;;;10.25;1.80;;;24.70;86.40;;;;;;4683449;30;20137;-72
2022/07/08 17:20:50;;;;;;;8.50;1.50;;;24.30;88.50;;;;;;4684254;30;20036;-72
2022/07/08 17:23:16;;;;;;;12.80;1.75;;;23.80;89.10;;;;;;4697671;30;20041;-72
2022/07/08 17:25:41;;;;;;;7.70;1.88;;;23.50;90.30;;;;;;4693565;30;20118;-72
2022/07/08 17:28:07;;;;;;;9.15;1.80;;;23.30;90.70;;;;;;4721440;30;20427;-72
2022/07/08 17:30:33;;;;;;;9.73;1.90;;;23.10;91.50;;;;;;4700029;30;20457;-73
2022/07/08 17:32:59;;;;;;;8.27;1.60;;;22.90;91.60;;;;;;4712102;30;20105;-72
2022/07/08 17:35:26;;;;;;;9.30;1.48;;;22.80;92.80;;;;;;4707969;30;20061;-72
2022/07/08 17:37:55;;;;;;;9.57;1.67;;;22.50;92.60;;;;;;4713408;30;20073;-73
2022/07/08 17:40:21;;;;;;;10.77;2.00;;;22.30;93.00;;;;;;4715193;30;20089;-72
2022/07/08 17:42:47;;;;;;;11.95;2.67;;;22.10;93.90;;;;;;4710423;30;20057;-71
2022/07/08 17:45:13;;;;;;;12.57;2.05;;;22.00;94.40;;;;;;4714752;30;20044;-71
2022/07/08 17:47:38;;;;;;;15.10;3.47;;;21.90;94.50;;;;;;4722994;30;20081;-71
2022/07/08 17:50:05;;;;;;;13.68;3.00;;;21.70;94.90;;;;;;4715520;30;20495;-72
2022/07/08 17:52:30;;;;;;;10.80;2.17;;;21.80;94.60;;;;;;4718593;30;20488;-71
2022/07/08 17:54:56;;;;;;;11.48;2.15;;;21.60;95.20;;;;;;4714436;30;20084;-72
2022/07/08 17:57:22;;;;;;;12.98;2.30;;;21.60;95.20;;;;;;4703836;30;20052;-71
2022/07/08 17:59:47;;;;;;;10.00;2.38;;;21.50;95.80;;;;;;4710489;30;20107;-71
2022/07/08 18:02:14;;;;;;;;;;;21.50;96.00;;;;;;4704021;30;20049;-72
2022/07/08 18:04:40;;;;;;;120.13;7.43;;;21.40;97.00;;;;;;4704821;30;19926;-72
2022/07/08 18:07:06;;;;;;;55.72;4.20;;;21.30;96.90;;;;;;4704467;30;20499;-71
2022/07/08 18:13:51;;;;;;;10.07;2.22;;;21.20;97.90;;;;;;4662279;30;19983;-72
2022/07/08 18:16:29;;;;;;;10.15;2.00;;;21.00;98.40;;;;;;4671266;30;20091;-71
2022/07/08 18:18:54;;;;;;;;;;;20.90;97.90;;;;;;4672877;30;20091;-72
2022/07/08 18:21:20;;;;;;;11.10;2.85;;;20.90;98.40;;;;;;4678893;30;20336;-71
2022/07/08 18:23:46;;;;;;;;;;;20.80;98.30;;;;;;4681027;30;20132;-71
2022/07/08 18:26:13;;;;;;;10.20;2.15;;;20.60;99.30;;;;;;4680313;30;20413;-72
2022/07/08 18:28:39;;;;;;;13.57;2.63;;;20.60;98.30;;;;;;4668658;30;20056;-71
2022/07/08 18:31:06;;;;;;;;;;;20.50;98.60;;;;;;4669667;30;20058;-70
2022/07/08 18:33:35;;;;;;;11.57;2.27;;;20.40;99.90;;;;;;4680946;30;20293;-71
2022/07/08 18:36:01;;;;;;;7.03;2.22;;;20.30;99.20;;;;;;4680387;30;20445;-72
2022/07/08 18:38:27;;;;;;;8.82;2.33;;;20.30;99.80;;;;;;4683148;30;20046;-71
2022/07/08 18:40:53;;;;;;;11.52;2.50;;;20.30;99.90;;;;;;4674106;30;20053;-70
2022/07/08 18:43:19;;;;;;;;;;;20.20;99.90;;;;;;4670700;30;20058;-72
2022/07/08 18:45:59;;;;;;;8.10;1.95;;;20.10;99.90;;;;;;4680698;30;19927;-73
2022/07/08 18:48:42;;;;;;;10.25;2.25;;;20.10;99.90;;;;;;4717059;30;20064;-72
2022/07/08 18:51:08;;;;;;;12.15;2.83;;;20.10;99.90;;;;;;4717436;30;20041;-71
2022/07/08 18:56:56;;;;;;;11.23;2.60;;;20.00;99.90;;;;;;4593857;31;19926;-72
2022/07/08 18:59:23;;;;;;;11.57;2.45;;;19.80;99.90;;;;;;4596457;30;20054;-71
2022/07/08 19:02:50;;;;;;;9.30;2.60;;;19.90;99.90;;;;;;4642966;30;20049;-72
2022/07/08 19:05:30;;;;;;;11.63;2.67;;;19.90;99.90;;;;;;4687847;30;20416;-71
2022/07/08 19:07:56;;;;;;;10.18;2.47;;;19.80;99.90;;;;;;4715438;30;20048;-70
2022/07/08 19:10:51;;;;;;;9.85;2.40;;;19.70;99.90;;;;;;4708750;30;20077;-72
2022/07/08 19:13:25;;;;;;;9.68;3.67;;;19.60;99.90;;;;;;4695753;30;20063;-73
2022/07/08 19:15:54;;;;;;;12.30;2.88;;;19.50;99.90;;;;;;4714336;30;20068;-70
2022/07/08 19:18:19;;;;;;;15.70;2.92;;;19.40;99.90;;;;;;4725717;30;20411;-71
2022/07/08 19:20:46;;;;;;;18.58;3.10;;;19.40;99.90;;;;;;4712754;30;20112;-70
2022/07/08 19:23:15;;;;;;;15.82;3.65;;;19.30;99.90;;;;;;4702369;30;20406;-69
2022/07/08 19:25:42;;;;;;;9.95;2.75;;;19.30;99.90;;;;;;4715695;30;20052;-69
2022/07/08 19:28:08;;;;;;;13.23;3.20;;;19.20;99.90;;;;;;4716812;30;20056;-67
2022/07/08 19:30:34;;;;;;;10.20;2.70;;;19.10;99.90;;;;;;4714270;30;20471;-67
2022/07/08 19:32:59;;;;;;;12.82;2.60;;;19.10;99.90;;;;;;4717063;30;20056;-67
2022/07/08 19:35:25;;;;;;;12.82;3.13;;;19.00;99.90;;;;;;4726401;30;20117;-68
2022/07/08 19:38:12;;;;;;;9.80;2.47;;;18.90;99.90;;;;;;4729433;30;20087;-71
2022/07/08 19:40:37;;;;;;;8.43;2.53;;;18.90;99.90;;;;;;4717473;30;20084;-68
2022/07/08 19:43:03;;;;;;;10.23;2.60;;;18.90;99.90;;;;;;4701027;30;20085;-70
2022/07/08 19:45:29;;;;;;;11.73;2.85;;;18.80;99.90;;;;;;4718322;30;20057;-69
2022/07/08 19:47:54;;;;;;;16.95;3.10;;;18.70;99.90;;;;;;4693764;30;20168;-69
2022/07/08 19:50:20;;;;;;;14.25;2.78;;;18.70;99.90;;;;;;4728922;30;20056;-70
2022/07/08 19:52:49;;;;;;;11.80;3.20;;;18.70;99.90;;;;;;4721316;30;20056;-72
2022/07/08 19:55:14;;;;;;;9.20;2.90;;;18.70;99.90;;;;;;4726316;30;20049;-69
2022/07/08 19:57:40;;;;;;;15.18;3.95;;;18.60;99.90;;;;;;4715727;30;20057;-68
2022/07/08 20:00:08;;;;;;;11.73;3.58;;;18.50;99.90;;;;;;4714683;30;20049;-69
2022/07/08 20:02:35;;;;;;;16.88;3.95;;;18.50;99.90;;;;;;4725647;30;20063;-70
2022/07/08 20:05:01;;;;;;;10.07;4.22;;;18.50;99.90;;;;;;4716228;30;20463;-69
2022/07/08 20:07:26;;;;;;;17.42;4.90;;;18.40;99.90;;;;;;4710139;30;20053;-69
2022/07/08 20:09:52;;;;;;;16.65;3.95;;;18.40;99.90;;;;;;4714030;30;20050;-69
2022/07/08 20:12:18;;;;;;;12.25;2.85;;;18.40;99.90;;;;;;4703632;30;20093;-71
2022/07/08 20:14:44;;;;;;;;;;;18.30;99.90;;;;;;4728210;30;20110;-68
2022/07/08 20:17:09;;;;;;;8.43;3.20;;;18.40;99.90;;;;;;4725462;30;20394;-69
2022/07/08 20:19:36;;;;;;;12.38;3.97;;;18.30;99.90;;;;;;4725654;30;20056;-68
2022/07/08 20:22:03;;;;;;;13.77;4.07;;;18.30;99.90;;;;;;4724044;30;20056;-68
2022/07/08 20:24:29;;;;;;;19.23;4.78;;;18.30;99.90;;;;;;4717366;30;20503;-68
2022/07/08 20:26:56;;;;;;;14.98;3.80;;;18.30;99.90;;;;;;4716140;30;20108;-69
2022/07/08 20:29:24;;;;;;;16.52;3.63;;;18.30;99.90;;;;;;4709124;30;20092;-71
2022/07/08 20:31:50;;;;;;;10.10;3.20;;;18.30;99.90;;;;;;4715839;30;20059;-71
2022/07/08 20:34:20;;;;;;;14.32;3.55;;;18.30;99.90;;;;;;4717216;30;20049;-70
2022/07/08 20:36:47;;;;;;;13.63;4.03;;;18.30;99.90;;;;;;4708756;30;20059;-68
2022/07/08 20:39:14;;;;;;;12.40;2.92;;;18.20;99.90;;;;;;4717844;30;20045;-68
2022/07/08 20:44:24;;;;;;;15.85;3.63;;;18.20;99.90;;;;;;4717911;30;20084;-68
2022/07/08 20:46:50;;;;;;;12.05;3.65;;;18.10;99.90;;;;;;4710714;30;20049;-68
2022/07/08 20:49:16;;;;;;;13.70;3.28;;;18.10;99.90;;;;;;4702030;30;20104;-70
2022/07/08 20:51:42;;;;;;;19.80;4.15;;;18.10;99.90;;;;;;4696058;30;20056;-68
2022/07/08 20:54:08;;;;;;;13.55;4.03;;;18.00;99.90;;;;;;4726725;30;20403;-67
2022/07/08 20:56:34;;;;;;;14.38;3.58;;;18.00;99.90;;;;;;4710516;30;20049;-69
2022/07/08 20:59:00;;;;;;;13.45;4.43;;;18.00;99.90;;;;;;4712033;30;20061;-69
2022/07/08 21:01:26;;;;;;;12.38;3.90;;;18.00;99.90;;;;;;4715544;30;20061;-68
2022/07/08 21:03:51;;;;;;;17.85;3.60;;;18.00;99.90;;;;;;4720563;30;20094;-69
2022/07/08 21:06:18;;;;;;;11.85;3.90;;;17.90;99.90;;;;;;4718097;30;20463;-69
2022/07/08 21:08:44;;;;;;;15.52;3.72;;;17.90;99.90;;;;;;4715750;30;20128;-70
2022/07/08 21:11:10;;;;;;;14.45;3.97;;;17.90;99.90;;;;;;4715124;30;20503;-69
2022/07/08 21:13:36;;;;;;;11.50;3.50;;;17.80;99.90;;;;;;4709290;30;20049;-69
2022/07/08 21:16:02;;;;;;;18.27;4.72;;;17.80;99.90;;;;;;4698983;30;20060;-70
2022/07/08 21:18:28;;;;;;;12.48;3.80;;;17.70;99.90;;;;;;4697177;30;20056;-72
2022/07/08 21:21:37;;;;;;;14.55;4.00;;;17.70;99.90;;;;;;4721060;30;20060;-76
